sensor_id;sensor_type;location;lat;lon;timestamp;P1;durP1;ratioP1;P2;durP2;ratioP2
19253;SDS011;9761;50.926;5.330;2022-11-15T06:12:35;5.43;;;4.80;;
19253;SDS011;9761;50.926;5.330;2022-11-15T06:15:03;6.43;;;4.83;;
19253;SDS011;9761;50.926;5.330;2022-11-15T06:17:32;7.80;;;5.03;;
19253;SDS011;9761;50.926;5.330;2022-11-15T06:20:01;7.83;;;5.00;;
19253;SDS011;9761;50.926;5.330;2022-11-15T06:22:28;7.67;;;5.97;;
19253;SDS011;9761;50.926;5.330;2022-11-15T06:24:55;6.50;;;5.50;;
19253;SDS011;9761;50.926;5.330;2022-11-15T06:30:21;8.30;;;5.83;;
19253;SDS011;9761;50.926;5.330;2022-11-15T06:32:50;8.23;;;5.77;;
19253;SDS011;9761;50.926;5.330;2022-11-15T06:35:17;7.63;;;6.20;;
19253;SDS011;9761;50.926;5.330;2022-11-15T06:37:46;6.97;;;5.33;;
19253;SDS011;9761;50.926;5.330;2022-11-15T06:40:18;7.50;;;5.80;;
19253;SDS011;9761;50.926;5.330;2022-11-15T06:42:45;5.73;;;4.60;;
19253;SDS011;9761;50.926;5.330;2022-11-15T06:45:13;9.25;;;5.35;;
19253;SDS011;9761;50.926;5.330;2022-11-15T06:47:45;7.67;;;4.83;;
19253;SDS011;9761;50.926;5.330;2022-11-15T06:50:13;7.33;;;5.00;;
19253;SDS011;9761;50.926;5.330;2022-11-15T06:52:40;8.85;;;5.85;;
19253;SDS011;9761;50.926;5.330;2022-11-15T06:55:09;6.40;;;3.83;;
19253;SDS011;9761;50.926;5.330;2022-11-15T06:57:36;7.27;;;4.40;;
19253;SDS011;9761;50.926;5.330;2022-11-15T07:00:16;5.13;;;4.60;;
19253;SDS011;9761;50.926;5.330;2022-11-15T07:02:47;5.43;;;4.77;;
19253;SDS011;9761;50.926;5.330;2022-11-15T07:05:16;7.87;;;4.20;;
19253;SDS011;9761;50.926;5.330;2022-11-15T07:07:50;7.47;;;4.83;;
19253;SDS011;9761;50.926;5.330;2022-11-15T07:10:19;6.07;;;4.67;;
19253;SDS011;9761;50.926;5.330;2022-11-15T07:12:47;5.13;;;4.60;;
19253;SDS011;9761;50.926;5.330;2022-11-15T07:15:14;8.13;;;4.93;;
19253;SDS011;9761;50.926;5.330;2022-11-15T07:17:43;5.30;;;4.30;;
19253;SDS011;9761;50.926;5.330;2022-11-15T07:20:12;12.40;;;5.47;;
19253;SDS011;9761;50.926;5.330;2022-11-15T07:22:45;6.77;;;4.67;;
19253;SDS011;9761;50.926;5.330;2022-11-15T07:25:12;7.87;;;5.37;;
19253;SDS011;9761;50.926;5.330;2022-11-15T07:27:41;9.13;;;5.73;;
19253;SDS011;9761;50.926;5.330;2022-11-15T07:32:41;11.43;;;6.10;;
19253;SDS011;9761;50.926;5.330;2022-11-15T07:35:11;8.37;;;5.50;;
19253;SDS011;9761;50.926;5.330;2022-11-15T07:37:40;7.57;;;5.10;;
19253;SDS011;9761;50.926;5.330;2022-11-15T07:40:07;7.17;;;5.13;;
19253;SDS011;9761;50.926;5.330;2022-11-15T07:42:36;8.00;;;6.00;;
19253;SDS011;9761;50.926;5.330;2022-11-15T07:45:22;6.83;;;5.67;;
19253;SDS011;9761;50.926;5.330;2022-11-15T07:47:53;9.27;;;5.30;;
19253;SDS011;9761;50.926;5.330;2022-11-15T07:50:22;7.53;;;5.87;;
19253;SDS011;9761;50.926;5.330;2022-11-15T07:52:53;6.37;;;5.13;;
19253;SDS011;9761;50.926;5.330;2022-11-15T07:55:21;6.20;;;5.40;;
19253;SDS011;9761;50.926;5.330;2022-11-15T07:57:48;8.20;;;5.60;;
19253;SDS011;9761;50.926;5.330;2022-11-15T08:00:17;7.60;;;4.97;;
19253;SDS011;9761;50.926;5.330;2022-11-15T08:02:46;8.90;;;5.40;;
19253;SDS011;9761;50.926;5.330;2022-11-15T08:05:15;9.17;;;6.03;;
19253;SDS011;9761;50.926;5.330;2022-11-15T08:07:43;6.70;;;4.60;;
19253;SDS011;9761;50.926;5.330;2022-11-15T08:10:14;6.03;;;4.57;;
19253;SDS011;9761;50.926;5.330;2022-11-15T08:12:45;5.60;;;4.63;;
19253;SDS011;9761;50.926;5.330;2022-11-15T08:15:14;4.37;;;3.97;;
19253;SDS011;9761;50.926;5.330;2022-11-15T08:17:41;4.80;;;3.70;;
19253;SDS011;9761;50.926;5.330;2022-11-15T08:20:10;3.47;;;3.17;;
19253;SDS011;9761;50.926;5.330;2022-11-15T08:22:37;5.37;;;3.03;;
19253;SDS011;9761;50.926;5.330;2022-11-15T08:25:06;4.43;;;2.67;;
19253;SDS011;9761;50.926;5.330;2022-11-15T08:27:34;3.87;;;2.77;;
19253;SDS011;9761;50.926;5.330;2022-11-15T08:30:03;3.50;;;2.40;;
19253;SDS011;9761;50.926;5.330;2022-11-15T08:32:32;2.97;;;2.00;;
19253;SDS011;9761;50.926;5.330;2022-11-15T08:35:00;3.57;;;2.30;;
19253;SDS011;9761;50.926;5.330;2022-11-15T08:37:27;3.63;;;2.07;;
19253;SDS011;9761;50.926;5.330;2022-11-15T08:39:54;4.53;;;1.70;;
19253;SDS011;9761;50.926;5.330;2022-11-15T08:42:22;4.83;;;2.20;;
19253;SDS011;9761;50.926;5.330;2022-11-15T08:44:50;3.13;;;1.57;;
19253;SDS011;9761;50.926;5.330;2022-11-15T08:47:18;4.50;;;1.50;;
19253;SDS011;9761;50.926;5.330;2022-11-15T08:49:46;2.87;;;1.27;;
19253;SDS011;9761;50.926;5.330;2022-11-15T08:52:14;5.47;;;1.90;;
19253;SDS011;9761;50.926;5.330;2022-11-15T08:54:41;1.90;;;1.47;;
19253;SDS011;9761;50.926;5.330;2022-11-15T08:57:14;5.60;;;1.70;;
19253;SDS011;9761;50.926;5.330;2022-11-15T08:59:43;5.63;;;1.40;;
19253;SDS011;9761;50.926;5.330;2022-11-15T09:02:11;1.50;;;1.30;;
19253;SDS011;9761;50.926;5.330;2022-11-15T09:04:40;2.13;;;1.57;;
19253;SDS011;9761;50.926;5.330;2022-11-15T09:07:10;2.50;;;1.30;;
19253;SDS011;9761;50.926;5.330;2022-11-15T09:09:43;2.57;;;1.50;;
19253;SDS011;9761;50.926;5.330;2022-11-15T09:12:10;2.53;;;1.10;;
19253;SDS011;9761;50.926;5.330;2022-11-15T09:14:37;4.33;;;1.10;;
19253;SDS011;9761;50.926;5.330;2022-11-15T09:17:08;1.60;;;1.23;;
19253;SDS011;9761;50.926;5.330;2022-11-15T09:19:35;4.13;;;1.20;;
19253;SDS011;9761;50.926;5.330;2022-11-15T09:22:05;3.43;;;1.20;;
19253;SDS011;9761;50.926;5.330;2022-11-15T09:24:33;4.13;;;1.40;;
19253;SDS011;9761;50.926;5.330;2022-11-15T09:27:02;2.43;;;1.30;;
19253;SDS011;9761;50.926;5.330;2022-11-15T09:32:21;2.40;;;1.47;;
19253;SDS011;9761;50.926;5.330;2022-11-15T09:34:50;3.40;;;1.20;;
19253;SDS011;9761;50.926;5.330;2022-11-15T09:37:19;3.50;;;1.40;;
19253;SDS011;9761;50.926;5.330;2022-11-15T09:39:47;3.57;;;1.20;;
19253;SDS011;9761;50.926;5.330;2022-11-15T09:42:22;2.27;;;1.33;;
19253;SDS011;9761;50.926;5.330;2022-11-15T09:45:02;3.97;;;1.27;;
19253;SDS011;9761;50.926;5.330;2022-11-15T09:47:52;3.57;;;1.53;;
19253;SDS011;9761;50.926;5.330;2022-11-15T09:50:49;2.20;;;1.37;;
19253;SDS011;9761;50.926;5.330;2022-11-15T09:53:25;3.37;;;1.47;;
19253;SDS011;9761;50.926;5.330;2022-11-15T09:59:14;5.30;;;1.20;;
19253;SDS011;9761;50.926;5.330;2022-11-15T10:01:51;5.50;;;1.70;;
19253;SDS011;9761;50.926;5.330;2022-11-15T10:04:28;1.63;;;1.23;;
19253;SDS011;9761;50.926;5.330;2022-11-15T10:07:01;6.23;;;1.60;;
19253;SDS011;9761;50.926;5.330;2022-11-15T10:09:38;2.13;;;1.10;;
19253;SDS011;9761;50.926;5.330;2022-11-15T10:12:10;5.03;;;1.67;;
19253;SDS011;9761;50.926;5.330;2022-11-15T10:18:08;2.43;;;1.07;;
19253;SDS011;9761;50.926;5.330;2022-11-15T10:20:49;5.07;;;1.53;;
19253;SDS011;9761;50.926;5.330;2022-11-15T10:23:27;2.23;;;1.30;;
19253;SDS011;9761;50.926;5.330;2022-11-15T10:25:57;3.63;;;1.27;;
19253;SDS011;9761;50.926;5.330;2022-11-15T10:28:25;1.43;;;0.90;;
19253;SDS011;9761;50.926;5.330;2022-11-15T10:30:58;2.93;;;1.40;;
19253;SDS011;9761;50.926;5.330;2022-11-15T10:33:29;3.47;;;1.40;;
19253;SDS011;9761;50.926;5.330;2022-11-15T10:38:52;6.90;;;1.50;;
19253;SDS011;9761;50.926;5.330;2022-11-15T10:41:31;4.13;;;1.30;;
19253;SDS011;9761;50.926;5.330;2022-11-15T10:49:55;4.87;;;1.27;;
19253;SDS011;9761;50.926;5.330;2022-11-15T10:52:26;3.93;;;1.30;;
19253;SDS011;9761;50.926;5.330;2022-11-15T10:54:56;3.10;;;1.37;;
19253;SDS011;9761;50.926;5.330;2022-11-15T10:57:35;2.70;;;1.10;;
19253;SDS011;9761;50.926;5.330;2022-11-15T11:00:07;4.03;;;1.20;;
19253;SDS011;9761;50.926;5.330;2022-11-15T11:02:57;4.17;;;0.97;;
19253;SDS011;9761;50.926;5.330;2022-11-15T11:05:33;3.13;;;1.10;;
19253;SDS011;9761;50.926;5.330;2022-11-15T11:08:21;5.70;;;1.77;;
19253;SDS011;9761;50.926;5.330;2022-11-15T11:10:52;4.70;;;1.23;;
19253;SDS011;9761;50.926;5.330;2022-11-15T11:13:22;2.80;;;0.90;;
19253;SDS011;9761;50.926;5.330;2022-11-15T11:15:52;3.13;;;1.20;;
19253;SDS011;9761;50.926;5.330;2022-11-15T11:18:27;2.67;;;0.93;;
19253;SDS011;9761;50.926;5.330;2022-11-15T11:21:03;4.17;;;0.97;;
19253;SDS011;9761;50.926;5.330;2022-11-15T11:23:43;5.73;;;1.20;;
19253;SDS011;9761;50.926;5.330;2022-11-15T11:26:29;2.87;;;1.07;;
19253;SDS011;9761;50.926;5.330;2022-11-15T11:29:14;1.80;;;1.00;;
19253;SDS011;9761;50.926;5.330;2022-11-15T11:31:49;2.23;;;0.77;;
19253;SDS011;9761;50.926;5.330;2022-11-15T11:34:29;2.33;;;1.13;;
19253;SDS011;9761;50.926;5.330;2022-11-15T11:37:11;5.73;;;1.07;;
19253;SDS011;9761;50.926;5.330;2022-11-15T11:39:54;3.70;;;1.50;;
19253;SDS011;9761;50.926;5.330;2022-11-15T11:42:37;3.67;;;1.30;;
19253;SDS011;9761;50.926;5.330;2022-11-15T11:45:15;3.13;;;1.00;;
19253;SDS011;9761;50.926;5.330;2022-11-15T11:47:46;3.80;;;1.00;;
19253;SDS011;9761;50.926;5.330;2022-11-15T11:50:18;2.50;;;1.00;;
19253;SDS011;9761;50.926;5.330;2022-11-15T11:52:53;3.13;;;0.97;;
19253;SDS011;9761;50.926;5.330;2022-11-15T11:55:28;2.13;;;1.00;;
19253;SDS011;9761;50.926;5.330;2022-11-15T11:58:02;2.67;;;1.20;;
19253;SDS011;9761;50.926;5.330;2022-11-15T12:00:33;3.57;;;1.20;;
19253;SDS011;9761;50.926;5.330;2022-11-15T12:03:09;5.00;;;1.00;;
19253;SDS011;9761;50.926;5.330;2022-11-15T12:05:41;3.53;;;1.10;;
19253;SDS011;9761;50.926;5.330;2022-11-15T12:08:20;3.30;;;1.20;;
19253;SDS011;9761;50.926;5.330;2022-11-15T12:11:03;5.03;;;0.83;;
19253;SDS011;9761;50.926;5.330;2022-11-15T12:13:43;4.53;;;1.20;;
19253;SDS011;9761;50.926;5.330;2022-11-15T12:16:16;2.57;;;1.00;;
19253;SDS011;9761;50.926;5.330;2022-11-15T12:18:47;3.73;;;0.70;;
19253;SDS011;9761;50.926;5.330;2022-11-15T12:21:21;3.50;;;1.10;;
19253;SDS011;9761;50.926;5.330;2022-11-15T12:24:00;2.77;;;0.80;;
19253;SDS011;9761;50.926;5.330;2022-11-15T12:26:36;3.27;;;0.97;;
19253;SDS011;9761;50.926;5.330;2022-11-15T12:29:10;2.40;;;1.00;;
19253;SDS011;9761;50.926;5.330;2022-11-15T12:31:42;1.40;;;1.00;;
19253;SDS011;9761;50.926;5.330;2022-11-15T12:34:28;5.87;;;1.07;;
19253;SDS011;9761;50.926;5.330;2022-11-15T12:40:20;1.50;;;0.80;;
19253;SDS011;9761;50.926;5.330;2022-11-15T12:43:07;2.00;;;1.00;;
19253;SDS011;9761;50.926;5.330;2022-11-15T12:46:01;1.80;;;0.90;;
19253;SDS011;9761;50.926;5.330;2022-11-15T12:48:48;3.57;;;1.10;;
19253;SDS011;9761;50.926;5.330;2022-11-15T12:51:20;3.70;;;0.90;;
19253;SDS011;9761;50.926;5.330;2022-11-15T12:53:54;1.83;;;0.70;;
19253;SDS011;9761;50.926;5.330;2022-11-15T12:56:23;2.77;;;1.00;;
19253;SDS011;9761;50.926;5.330;2022-11-15T12:58:56;1.70;;;1.03;;
19253;SDS011;9761;50.926;5.330;2022-11-15T13:04:25;2.17;;;0.90;;
19253;SDS011;9761;50.926;5.330;2022-11-15T13:06:56;3.30;;;1.10;;
19253;SDS011;9761;50.926;5.330;2022-11-15T13:18:33;2.47;;;1.20;;
19253;SDS011;9761;50.926;5.330;2022-11-15T13:21:22;2.13;;;1.20;;
19253;SDS011;9761;50.926;5.330;2022-11-15T13:24:14;1.87;;;0.80;;
19253;SDS011;9761;50.926;5.330;2022-11-15T13:26:45;2.30;;;1.20;;
19253;SDS011;9761;50.926;5.330;2022-11-15T13:29:16;3.53;;;1.20;;
19253;SDS011;9761;50.926;5.330;2022-11-15T13:31:46;1.77;;;0.90;;
19253;SDS011;9761;50.926;5.330;2022-11-15T13:34:25;4.07;;;1.03;;
19253;SDS011;9761;50.926;5.330;2022-11-15T13:36:55;9.43;;;1.93;;
19253;SDS011;9761;50.926;5.330;2022-11-15T13:39:26;3.17;;;1.33;;
19253;SDS011;9761;50.926;5.330;2022-11-15T13:41:57;4.23;;;1.27;;
19253;SDS011;9761;50.926;5.330;2022-11-15T13:44:25;2.83;;;1.67;;
19253;SDS011;9761;50.926;5.330;2022-11-15T13:47:03;3.60;;;1.50;;
19253;SDS011;9761;50.926;5.330;2022-11-15T13:49:33;2.27;;;1.10;;
19253;SDS011;9761;50.926;5.330;2022-11-15T13:52:08;2.90;;;1.23;;
19253;SDS011;9761;50.926;5.330;2022-11-15T13:54:41;3.03;;;1.27;;
19253;SDS011;9761;50.926;5.330;2022-11-15T13:57:12;2.13;;;1.10;;
19253;SDS011;9761;50.926;5.330;2022-11-15T13:59:45;3.93;;;1.47;;
19253;SDS011;9761;50.926;5.330;2022-11-15T14:02:17;2.00;;;1.30;;
19253;SDS011;9761;50.926;5.330;2022-11-15T14:04:50;1.87;;;1.40;;
19253;SDS011;9761;50.926;5.330;2022-11-15T14:07:26;3.23;;;1.43;;
19253;SDS011;9761;50.926;5.330;2022-11-15T14:09:53;2.93;;;1.60;;
19253;SDS011;9761;50.926;5.330;2022-11-15T14:12:23;3.43;;;1.50;;
19253;SDS011;9761;50.926;5.330;2022-11-15T14:14:56;2.23;;;1.30;;
19253;SDS011;9761;50.926;5.330;2022-11-15T14:17:33;1.77;;;1.00;;
19253;SDS011;9761;50.926;5.330;2022-11-15T14:20:24;1.73;;;1.20;;
19253;SDS011;9761;50.926;5.330;2022-11-15T14:22:57;3.20;;;1.30;;
19253;SDS011;9761;50.926;5.330;2022-11-15T14:25:27;2.10;;;1.27;;
19253;SDS011;9761;50.926;5.330;2022-11-15T14:44:50;3.07;;;1.33;;
19253;SDS011;9761;50.926;5.330;2022-11-15T14:47:24;1.67;;;1.20;;
19253;SDS011;9761;50.926;5.330;2022-11-15T14:49:55;2.00;;;1.03;;
19253;SDS011;9761;50.926;5.330;2022-11-15T14:52:41;1.87;;;1.40;;
19253;SDS011;9761;50.926;5.330;2022-11-15T14:55:11;1.70;;;1.37;;
19253;SDS011;9761;50.926;5.330;2022-11-15T14:57:49;2.87;;;1.30;;
19253;SDS011;9761;50.926;5.330;2022-11-15T15:00:20;1.97;;;1.30;;
19253;SDS011;9761;50.926;5.330;2022-11-15T15:02:49;2.83;;;1.50;;
19253;SDS011;9761;50.926;5.330;2022-11-15T15:05:22;1.57;;;1.23;;
19253;SDS011;9761;50.926;5.330;2022-11-15T15:07:52;1.90;;;1.17;;
19253;SDS011;9761;50.926;5.330;2022-11-15T15:13:38;1.30;;;1.20;;
19253;SDS011;9761;50.926;5.330;2022-11-15T15:16:10;3.17;;;1.43;;
19253;SDS011;9761;50.926;5.330;2022-11-15T15:18:40;3.43;;;1.50;;
19253;SDS011;9761;50.926;5.330;2022-11-15T15:21:13;2.47;;;1.47;;
19253;SDS011;9761;50.926;5.330;2022-11-15T15:23:45;5.03;;;1.40;;
19253;SDS011;9761;50.926;5.330;2022-11-15T15:26:21;1.63;;;1.50;;
19253;SDS011;9761;50.926;5.330;2022-11-15T15:28:53;1.97;;;1.53;;
19253;SDS011;9761;50.926;5.330;2022-11-15T15:31:23;2.40;;;1.60;;
19253;SDS011;9761;50.926;5.330;2022-11-15T15:33:51;2.03;;;1.70;;
19253;SDS011;9761;50.926;5.330;2022-11-15T15:36:18;2.80;;;1.80;;
19253;SDS011;9761;50.926;5.330;2022-11-15T15:38:49;4.27;;;2.03;;
19253;SDS011;9761;50.926;5.330;2022-11-15T15:41:17;2.43;;;1.37;;
19253;SDS011;9761;50.926;5.330;2022-11-15T15:43:46;2.83;;;1.77;;
19253;SDS011;9761;50.926;5.330;2022-11-15T15:46:14;1.90;;;1.43;;
19253;SDS011;9761;50.926;5.330;2022-11-15T15:48:44;1.93;;;1.60;;
19253;SDS011;9761;50.926;5.330;2022-11-15T15:51:12;2.10;;;1.63;;
19253;SDS011;9761;50.926;5.330;2022-11-15T15:53:43;3.03;;;1.77;;
19253;SDS011;9761;50.926;5.330;2022-11-15T15:56:12;2.70;;;1.90;;
19253;SDS011;9761;50.926;5.330;2022-11-15T15:58:39;1.73;;;1.50;;
19253;SDS011;9761;50.926;5.330;2022-11-15T16:01:25;4.43;;;1.97;;
19253;SDS011;9761;50.926;5.330;2022-11-15T16:03:53;4.13;;;2.00;;
19253;SDS011;9761;50.926;5.330;2022-11-15T16:06:28;3.97;;;1.97;;
19253;SDS011;9761;50.926;5.330;2022-11-15T16:09:02;3.27;;;2.50;;
19253;SDS011;9761;50.926;5.330;2022-11-15T16:21:18;4.10;;;2.87;;
19253;SDS011;9761;50.926;5.330;2022-11-15T16:23:59;5.87;;;2.80;;
19253;SDS011;9761;50.926;5.330;2022-11-15T16:26:29;3.13;;;2.07;;
19253;SDS011;9761;50.926;5.330;2022-11-15T16:35:21;4.20;;;3.33;;
19253;SDS011;9761;50.926;5.330;2022-11-15T16:37:51;10.43;;;3.70;;
19253;SDS011;9761;50.926;5.330;2022-11-15T16:40:24;5.47;;;3.30;;
19253;SDS011;9761;50.926;5.330;2022-11-15T16:42:56;5.93;;;3.47;;
19253;SDS011;9761;50.926;5.330;2022-11-15T16:45:31;5.00;;;3.27;;
19253;SDS011;9761;50.926;5.330;2022-11-15T16:48:02;9.20;;;3.70;;
19253;SDS011;9761;50.926;5.330;2022-11-15T16:50:30;4.60;;;3.47;;
19253;SDS011;9761;50.926;5.330;2022-11-15T16:53:07;4.67;;;4.00;;
19253;SDS011;9761;50.926;5.330;2022-11-15T16:55:38;4.70;;;3.33;;
19253;SDS011;9761;50.926;5.330;2022-11-15T16:58:05;3.63;;;3.30;;
19253;SDS011;9761;50.926;5.330;2022-11-15T17:00:37;5.43;;;4.33;;
19253;SDS011;9761;50.926;5.330;2022-11-15T17:03:04;5.50;;;4.40;;
19253;SDS011;9761;50.926;5.330;2022-11-15T17:05:33;5.57;;;4.17;;
19253;SDS011;9761;50.926;5.330;2022-11-15T17:08:01;6.27;;;4.57;;
19253;SDS011;9761;50.926;5.330;2022-11-15T17:10:29;5.07;;;4.57;;
19253;SDS011;9761;50.926;5.330;2022-11-15T17:12:57;6.70;;;4.13;;
19253;SDS011;9761;50.926;5.330;2022-11-15T17:15:25;8.10;;;6.43;;
19253;SDS011;9761;50.926;5.330;2022-11-15T17:17:53;5.40;;;4.33;;
19253;SDS011;9761;50.926;5.330;2022-11-15T17:20:24;6.03;;;4.60;;
19253;SDS011;9761;50.926;5.330;2022-11-15T17:22:53;5.47;;;4.43;;
19253;SDS011;9761;50.926;5.330;2022-11-15T17:25:29;7.50;;;5.23;;
19253;SDS011;9761;50.926;5.330;2022-11-15T17:27:58;5.60;;;4.37;;
19253;SDS011;9761;50.926;5.330;2022-11-15T17:30:25;5.23;;;4.70;;
19253;SDS011;9761;50.926;5.330;2022-11-15T17:32:53;8.20;;;5.20;;
19253;SDS011;9761;50.926;5.330;2022-11-15T17:35:21;5.63;;;4.90;;
19253;SDS011;9761;50.926;5.330;2022-11-15T17:37:48;5.60;;;5.10;;
19253;SDS011;9761;50.926;5.330;2022-11-15T17:40:20;7.50;;;5.50;;
19253;SDS011;9761;50.926;5.330;2022-11-15T17:42:49;6.80;;;5.97;;
19253;SDS011;9761;50.926;5.330;2022-11-15T17:45:20;5.97;;;5.37;;
19253;SDS011;9761;50.926;5.330;2022-11-15T17:51:13;6.63;;;5.27;;
19253;SDS011;9761;50.926;5.330;2022-11-15T18:25:29;6.90;;;6.20;;
19253;SDS011;9761;50.926;5.330;2022-11-15T18:27:57;8.57;;;7.23;;
19253;SDS011;9761;50.926;5.330;2022-11-15T18:30:28;7.20;;;6.10;;
19253;SDS011;9761;50.926;5.330;2022-11-15T18:36:24;8.07;;;7.27;;
19253;SDS011;9761;50.926;5.330;2022-11-15T18:38:59;8.57;;;7.33;;
19253;SDS011;9761;50.926;5.330;2022-11-15T18:41:34;9.23;;;7.50;;
19253;SDS011;9761;50.926;5.330;2022-11-15T18:44:03;9.03;;;7.17;;
19253;SDS011;9761;50.926;5.330;2022-11-15T18:46:32;8.77;;;7.10;;
19253;SDS011;9761;50.926;5.330;2022-11-15T18:49:08;8.27;;;7.40;;
19253;SDS011;9761;50.926;5.330;2022-11-15T18:57:54;8.10;;;7.30;;
19253;SDS011;9761;50.926;5.330;2022-11-15T19:00:26;7.83;;;7.03;;
19253;SDS011;9761;50.926;5.330;2022-11-15T19:02:55;7.80;;;7.00;;
19253;SDS011;9761;50.926;5.330;2022-11-15T19:11:30;8.50;;;7.43;;
19253;SDS011;9761;50.926;5.330;2022-11-15T19:19:42;8.30;;;7.50;;
19253;SDS011;9761;50.926;5.330;2022-11-15T19:22:12;8.70;;;7.80;;
19253;SDS011;9761;50.926;5.330;2022-11-15T19:24:40;9.00;;;8.10;;
19253;SDS011;9761;50.926;5.330;2022-11-15T19:27:10;8.70;;;7.80;;
19253;SDS011;9761;50.926;5.330;2022-11-15T19:29:51;8.33;;;7.53;;
19253;SDS011;9761;50.926;5.330;2022-11-15T19:34:52;8.60;;;7.70;;
19253;SDS011;9761;50.926;5.330;2022-11-15T19:37:25;8.83;;;8.00;;
19253;SDS011;9761;50.926;5.330;2022-11-15T19:43:08;7.87;;;7.07;;
19253;SDS011;9761;50.926;5.330;2022-11-15T19:45:51;8.40;;;7.60;;
19253;SDS011;9761;50.926;5.330;2022-11-15T19:48:23;10.17;;;7.97;;
19253;SDS011;9761;50.926;5.330;2022-11-15T19:50:51;8.80;;;7.83;;
19253;SDS011;9761;50.926;5.330;2022-11-15T19:53:25;7.87;;;6.90;;
19253;SDS011;9761;50.926;5.330;2022-11-15T19:55:54;8.27;;;7.40;;
19253;SDS011;9761;50.926;5.330;2022-11-15T19:58:28;9.07;;;8.17;;
19253;SDS011;9761;50.926;5.330;2022-11-15T20:00:59;8.27;;;7.30;;
19253;SDS011;9761;50.926;5.330;2022-11-15T20:03:37;7.23;;;5.87;;
19253;SDS011;9761;50.926;5.330;2022-11-15T20:06:11;8.37;;;7.23;;
19253;SDS011;9761;50.926;5.330;2022-11-15T20:08:41;8.63;;;6.77;;
19253;SDS011;9761;50.926;5.330;2022-11-15T20:11:09;7.47;;;6.60;;
19253;SDS011;9761;50.926;5.330;2022-11-15T20:13:39;7.53;;;6.03;;
19253;SDS011;9761;50.926;5.330;2022-11-15T20:16:07;8.30;;;6.70;;
19253;SDS011;9761;50.926;5.330;2022-11-15T20:18:42;7.10;;;6.27;;
19253;SDS011;9761;50.926;5.330;2022-11-15T20:21:09;8.43;;;6.13;;
19253;SDS011;9761;50.926;5.330;2022-11-15T20:23:39;7.20;;;6.40;;
19253;SDS011;9761;50.926;5.330;2022-11-15T20:29:07;6.03;;;5.53;;
19253;SDS011;9761;50.926;5.330;2022-11-15T20:31:35;8.87;;;7.27;;
19253;SDS011;9761;50.926;5.330;2022-11-15T20:34:17;7.50;;;6.57;;
19253;SDS011;9761;50.926;5.330;2022-11-15T20:36:48;7.17;;;6.47;;
19253;SDS011;9761;50.926;5.330;2022-11-15T20:39:21;10.90;;;6.67;;
19253;SDS011;9761;50.926;5.330;2022-11-15T20:41:49;7.83;;;6.23;;
19253;SDS011;9761;50.926;5.330;2022-11-15T20:44:18;6.40;;;5.80;;
19253;SDS011;9761;50.926;5.330;2022-11-15T20:46:46;6.90;;;6.30;;
19253;SDS011;9761;50.926;5.330;2022-11-15T20:49:13;6.83;;;6.13;;
19253;SDS011;9761;50.926;5.330;2022-11-15T20:51:41;8.90;;;8.00;;
19253;SDS011;9761;50.926;5.330;2022-11-15T20:54:10;7.87;;;6.13;;
19253;SDS011;9761;50.926;5.330;2022-11-15T20:56:37;6.63;;;5.87;;
19253;SDS011;9761;50.926;5.330;2022-11-15T20:59:06;7.33;;;5.43;;
19253;SDS011;9761;50.926;5.330;2022-11-15T21:01:38;6.47;;;5.70;;
19253;SDS011;9761;50.926;5.330;2022-11-15T21:07:23;9.30;;;6.40;;
19253;SDS011;9761;50.926;5.330;2022-11-15T21:10:01;6.80;;;5.20;;
19253;SDS011;9761;50.926;5.330;2022-11-15T21:12:48;6.10;;;5.50;;
19253;SDS011;9761;50.926;5.330;2022-11-15T21:15:18;6.40;;;5.43;;
19253;SDS011;9761;50.926;5.330;2022-11-15T21:17:48;8.63;;;6.23;;
19253;SDS011;9761;50.926;5.330;2022-11-15T21:20:15;7.27;;;6.10;;
19253;SDS011;9761;50.926;5.330;2022-11-15T21:22:44;7.00;;;6.30;;
19253;SDS011;9761;50.926;5.330;2022-11-15T21:25:11;6.93;;;5.57;;
19253;SDS011;9761;50.926;5.330;2022-11-15T21:27:38;6.30;;;5.70;;
19253;SDS011;9761;50.926;5.330;2022-11-15T21:30:05;6.77;;;6.07;;
19253;SDS011;9761;50.926;5.330;2022-11-15T21:32:33;8.03;;;6.77;;
19253;SDS011;9761;50.926;5.330;2022-11-15T21:35:05;6.80;;;6.00;;
19253;SDS011;9761;50.926;5.330;2022-11-15T21:38:14;7.07;;;6.13;;
19253;SDS011;9761;50.926;5.330;2022-11-15T21:40:42;7.00;;;5.90;;
19253;SDS011;9761;50.926;5.330;2022-11-15T21:43:10;6.57;;;5.83;;
19253;SDS011;9761;50.926;5.330;2022-11-15T21:45:37;9.77;;;5.83;;
19253;SDS011;9761;50.926;5.330;2022-11-15T21:51:43;7.27;;;5.53;;
19253;SDS011;9761;50.926;5.330;2022-11-15T22:02:46;6.53;;;5.77;;
19253;SDS011;9761;50.926;5.330;2022-11-15T22:05:15;6.07;;;5.03;;
19253;SDS011;9761;50.926;5.330;2022-11-15T22:07:43;6.27;;;5.67;;
19253;SDS011;9761;50.926;5.330;2022-11-15T22:10:10;7.40;;;6.47;;
19253;SDS011;9761;50.926;5.330;2022-11-15T22:12:39;7.07;;;6.37;;
19253;SDS011;9761;50.926;5.330;2022-11-15T22:15:06;8.03;;;5.70;;
19253;SDS011;9761;50.926;5.330;2022-11-15T22:17:34;6.97;;;6.10;;
19253;SDS011;9761;50.926;5.330;2022-11-15T22:20:20;6.20;;;5.60;;
19253;SDS011;9761;50.926;5.330;2022-11-15T22:22:46;7.50;;;6.33;;
19253;SDS011;9761;50.926;5.330;2022-11-15T22:25:14;5.80;;;5.10;;
19253;SDS011;9761;50.926;5.330;2022-11-15T22:27:41;5.80;;;5.20;;
19253;SDS011;9761;50.926;5.330;2022-11-15T22:30:09;6.40;;;5.80;;
19253;SDS011;9761;50.926;5.330;2022-11-15T22:32:46;6.60;;;5.57;;
19253;SDS011;9761;50.926;5.330;2022-11-15T22:35:15;7.67;;;5.20;;
19253;SDS011;9761;50.926;5.330;2022-11-15T22:53:36;5.80;;;5.20;;
19253;SDS011;9761;50.926;5.330;2022-11-15T22:56:04;8.00;;;5.77;;
19253;SDS011;9761;50.926;5.330;2022-11-15T22:58:31;6.47;;;5.53;;
19253;SDS011;9761;50.926;5.330;2022-11-15T23:01:02;6.07;;;5.40;;
19253;SDS011;9761;50.926;5.330;2022-11-15T23:03:31;6.27;;;5.43;;
19253;SDS011;9761;50.926;5.330;2022-11-15T23:06:03;6.17;;;5.40;;
19253;SDS011;9761;50.926;5.330;2022-11-15T23:08:33;7.23;;;4.97;;
19253;SDS011;9761;50.926;5.330;2022-11-15T23:11:02;5.67;;;5.10;;
19253;SDS011;9761;50.926;5.330;2022-11-15T23:13:48;6.43;;;5.83;;
19253;SDS011;9761;50.926;5.330;2022-11-15T23:16:17;6.20;;;5.30;;
19253;SDS011;9761;50.926;5.330;2022-11-15T23:19:00;5.53;;;4.57;;
19253;SDS011;9761;50.926;5.330;2022-11-15T23:21:29;5.87;;;5.13;;
19253;SDS011;9761;50.926;5.330;2022-11-15T23:24:15;5.50;;;4.57;;
19253;SDS011;9761;50.926;5.330;2022-11-15T23:26:48;5.67;;;4.87;;
19253;SDS011;9761;50.926;5.330;2022-11-15T23:29:20;5.07;;;4.57;;
19253;SDS011;9761;50.926;5.330;2022-11-15T23:31:52;5.07;;;4.57;;
19253;SDS011;9761;50.926;5.330;2022-11-15T23:34:38;5.30;;;4.40;;
19253;SDS011;9761;50.926;5.330;2022-11-15T23:37:09;5.37;;;4.50;;
19253;SDS011;9761;50.926;5.330;2022-11-15T23:39:38;4.73;;;4.33;;
19253;SDS011;9761;50.926;5.330;2022-11-15T23:42:08;5.57;;;4.83;;
19253;SDS011;9761;50.926;5.330;2022-11-15T23:44:43;6.33;;;4.60;;
19253;SDS011;9761;50.926;5.330;2022-11-15T23:47:10;5.90;;;5.20;;
19253;SDS011;9761;50.926;5.330;2022-11-15T23:49:37;7.27;;;4.87;;
19253;SDS011;9761;50.926;5.330;2022-11-15T23:52:07;5.80;;;4.90;;
19253;SDS011;9761;50.926;5.330;2022-11-15T23:54:34;6.07;;;4.80;;
19253;SDS011;9761;50.926;5.330;2022-11-15T23:57:02;7.47;;;5.27;;
19253;SDS011;9761;50.926;5.330;2022-11-15T23:59:32;6.97;;;5.27;;
